Time,TemperatureF,DewpointF,PressureIn,WindDirection,WindDirectionDegrees,WindSpeedMPH,WindSpeedGustMPH,Humidity,HourlyPrecipIn,Conditions,Clouds,dailyrainin,SoftwareType,DateUTC
2013-02-07 00:01:00,49.0,35.0,-100.00,NW,325,3.0,3.0,59,-99.99,,,-99.99,,2013-02-07 08:01:00,
2013-02-07 00:11:00,48.0,36.0,-100.00,NNW,331,2.0,3.0,62,-99.99,,,-99.99,,2013-02-07 08:11:00,
2013-02-07 00:21:00,50.0,36.0,-100.00,East,99,2.0,3.0,58,-99.99,,,-99.99,,2013-02-07 08:21:00,
2013-02-07 00:31:00,50.0,36.0,-100.00,ESE,107,1.0,3.0,58,-99.99,,,-99.99,,2013-02-07 08:31:00,
2013-02-07 00:41:00,49.0,35.0,-100.00,East,80,3.0,4.0,58,-99.99,,,-99.99,,2013-02-07 08:41:00,
2013-02-07 00:52:00,52.0,35.0,-100.00,East,91,2.0,3.0,52,-99.99,,,-99.99,,2013-02-07 08:52:00,
2013-02-07 01:01:00,52.0,35.0,-100.00,East,91,2.0,3.0,52,-99.99,,,-99.99,,2013-02-07 09:01:00,
2013-02-07 01:11:00,52.0,35.0,-100.00,East,80,3.0,3.0,53,-99.99,,,-99.99,,2013-02-07 09:11:00,
2013-02-07 01:21:00,51.0,35.0,-100.00,East,81,2.0,3.0,54,-99.99,,,-99.99,,2013-02-07 09:21:00,
2013-02-07 01:31:00,50.0,35.0,-100.00,East,88,2.0,3.0,57,-99.99,,,-99.99,,2013-02-07 09:31:00,
2013-02-07 01:41:00,50.0,36.0,-100.00,ENE,63,2.0,3.0,58,-99.99,,,-99.99,,2013-02-07 09:41:00,
2013-02-07 01:51:00,51.0,36.0,-100.00,North,5,3.0,3.0,57,-99.99,,,-99.99,,2013-02-07 09:51:00,
2013-02-07 02:01:00,51.0,36.0,-100.00,North,5,3.0,3.0,57,-99.99,,,-99.99,,2013-02-07 10:01:00,
2013-02-07 02:11:00,51.0,37.0,-100.00,WNW,295,2.0,3.0,58,-99.99,,,-99.99,,2013-02-07 10:11:00,
2013-02-07 02:22:00,51.0,37.0,-100.00,SW,233,2.0,3.0,58,-99.99,,,-99.99,,2013-02-07 10:22:00,
2013-02-07 02:31:00,51.0,37.0,-100.00,WSW,243,2.0,3.0,59,-99.99,,,-99.99,,2013-02-07 10:31:00,
2013-02-07 02:41:00,50.0,37.0,-100.00,West,270,2.0,3.0,61,-99.99,,,-99.99,,2013-02-07 10:41:00,
2013-02-07 02:51:00,48.0,36.0,-100.00,WNW,300,2.0,3.0,64,-99.99,,,-99.99,,2013-02-07 10:51:00,
2013-02-07 03:01:00,48.0,36.0,-100.00,West,273,1.0,3.0,64,-99.99,,,-99.99,,2013-02-07 11:01:00,
2013-02-07 03:11:00,47.0,37.0,-100.00,NW,313,1.0,2.0,67,-99.99,,,-99.99,,2013-02-07 11:11:00,
2013-02-07 03:22:00,47.0,36.0,-100.00,NNW,336,1.0,2.0,65,-99.99,,,-99.99,,2013-02-07 11:22:00,
2013-02-07 03:32:00,47.0,36.0,-100.00,NNW,345,0.0,1.0,66,-99.99,,,-99.99,,2013-02-07 11:32:00,
2013-02-07 03:43:00,47.0,36.0,-100.00,North,0,1.0,0.0,66,-99.99,,,-99.99,,2013-02-07 11:43:00,
2013-02-07 03:52:00,47.0,36.0,-100.00,ESE,116,0.0,3.0,65,-99.99,,,-99.99,,2013-02-07 11:52:00,
2013-02-07 04:01:00,46.0,36.0,-100.00,East,79,2.0,4.0,67,-99.99,,,-99.99,,2013-02-07 12:01:00,
2013-02-07 04:11:00,46.0,36.0,-100.00,NE,48,3.0,4.0,67,-99.99,,,-99.99,,2013-02-07 12:11:00,
2013-02-07 04:22:00,46.0,35.0,-100.00,NE,55,2.0,5.0,65,-99.99,,,-99.99,,2013-02-07 12:22:00,
2013-02-07 04:32:00,46.0,34.0,-100.00,ENE,78,3.0,5.0,62,-99.99,,,-99.99,,2013-02-07 12:32:00,
2013-02-07 04:42:00,46.0,33.0,-100.00,ESE,114,2.0,4.0,61,-99.99,,,-99.99,,2013-02-07 12:42:00,
2013-02-07 04:52:00,46.0,34.0,-100.00,SSE,151,2.0,3.0,62,-99.99,,,-99.99,,2013-02-07 12:52:00,
2013-02-07 05:02:00,45.0,34.0,-100.00,ESE,114,2.0,6.0,64,-99.99,,,-99.99,,2013-02-07 13:02:00,
2013-02-07 05:11:00,46.0,33.0,-100.00,ENE,78,3.0,6.0,61,-99.99,,,-99.99,,2013-02-07 13:11:00,
2013-02-07 05:21:00,45.0,32.0,-100.00,ENE,73,3.0,5.0,61,-99.99,,,-99.99,,2013-02-07 13:21:00,
2013-02-07 05:31:00,46.0,32.0,-100.00,East,91,3.0,4.0,59,-99.99,,,-99.99,,2013-02-07 13:31:00,
2013-02-07 05:41:00,46.0,32.0,-100.00,East,91,3.0,4.0,59,-99.99,,,-99.99,,2013-02-07 13:41:00,
2013-02-07 05:51:00,46.0,32.0,-100.00,East,85,2.0,5.0,58,-99.99,,,-99.99,,2013-02-07 13:51:00,
2013-02-07 06:01:00,47.0,32.0,-100.00,ENE,60,3.0,5.0,56,-99.99,,,-99.99,,2013-02-07 14:01:00,
2013-02-07 06:11:00,47.0,32.0,-100.00,East,93,3.0,5.0,55,-99.99,,,-99.99,,2013-02-07 14:11:00,
2013-02-07 06:21:00,47.0,31.0,-100.00,East,85,3.0,4.0,54,-99.99,,,-99.99,,2013-02-07 14:21:00,
2013-02-07 06:31:00,47.0,31.0,-100.00,ENE,72,3.0,5.0,54,-99.99,,,-99.99,,2013-02-07 14:31:00,
2013-02-07 06:41:00,47.0,31.0,-100.00,NE,49,4.0,5.0,53,-99.99,,,-99.99,,2013-02-07 14:41:00,
2013-02-07 06:52:00,48.0,30.0,-100.00,ENE,61,4.0,5.0,49,-99.99,,,-99.99,,2013-02-07 14:52:00,
2013-02-07 07:01:00,48.0,30.0,-100.00,ENE,61,4.0,5.0,49,-99.99,,,-99.99,,2013-02-07 15:01:00,
2013-02-07 07:11:00,50.0,29.0,-100.00,ENE,61,3.0,5.0,44,-99.99,,,-99.99,,2013-02-07 15:11:00,
2013-02-07 07:21:00,50.0,28.0,-100.00,ENE,69,4.0,4.0,43,-99.99,,,-99.99,,2013-02-07 15:21:00,
2013-02-07 07:32:00,50.0,27.0,-100.00,ENE,70,3.0,4.0,41,-99.99,,,-99.99,,2013-02-07 15:32:00,
2013-02-07 07:41:00,50.0,27.0,-100.00,NE,56,3.0,4.0,40,-99.99,,,-99.99,,2013-02-07 15:41:00,
2013-02-07 07:52:00,51.0,26.0,-100.00,NE,55,3.0,4.0,38,-99.99,,,-99.99,,2013-02-07 15:52:00,
2013-02-07 08:01:00,52.0,28.0,-100.00,ENE,63,3.0,3.0,40,-99.99,,,-99.99,,2013-02-07 16:01:00,
2013-02-07 08:11:00,52.0,29.0,-100.00,ENE,65,2.0,3.0,41,-99.99,,,-99.99,,2013-02-07 16:11:00,
2013-02-07 08:21:00,53.0,30.0,-100.00,ENE,72,2.0,3.0,41,-99.99,,,-99.99,,2013-02-07 16:21:00,
2013-02-07 08:31:00,55.0,30.0,-100.00,East,97,2.0,4.0,38,-99.99,,,-99.99,,2013-02-07 16:31:00,
2013-02-07 08:41:00,55.0,30.0,-100.00,East,97,2.0,4.0,38,-99.99,,,-99.99,,2013-02-07 16:41:00,
2013-02-07 08:52:00,56.0,30.0,-100.00,SE,124,2.0,4.0,37,-99.99,,,-99.99,,2013-02-07 16:52:00,
2013-02-07 09:01:00,56.0,30.0,-100.00,SE,124,2.0,4.0,37,-99.99,,,-99.99,,2013-02-07 17:01:00,
2013-02-07 09:11:00,56.0,29.0,-100.00,SE,132,2.0,5.0,35,-99.99,,,-99.99,,2013-02-07 17:11:00,
2013-02-07 09:31:00,57.0,25.0,-100.00,SSE,154,3.0,6.0,29,-99.99,,,-99.99,,2013-02-07 17:31:00,
2013-02-07 09:42:00,58.0,25.0,-100.00,SSE,166,4.0,6.0,28,-99.99,,,-99.99,,2013-02-07 17:42:00,
2013-02-07 09:52:00,59.0,29.0,-100.00,SW,215,4.0,6.0,32,-99.99,,,-99.99,,2013-02-07 17:52:00,
2013-02-07 10:01:00,59.0,29.0,-100.00,SW,215,4.0,6.0,32,-99.99,,,-99.99,,2013-02-07 18:01:00,
2013-02-07 10:11:00,57.0,35.0,-100.00,WNW,297,4.0,5.0,43,-99.99,,,-99.99,,2013-02-07 18:11:00,
2013-02-07 10:22:00,56.0,35.0,-100.00,WNW,296,3.0,5.0,45,-99.99,,,-99.99,,2013-02-07 18:22:00,
2013-02-07 10:31:00,57.0,35.0,-100.00,WNW,288,2.0,5.0,44,-99.99,,,-99.99,,2013-02-07 18:31:00,
2013-02-07 10:41:00,59.0,33.0,-100.00,South,187,2.0,9.0,37,-99.99,,,-99.99,,2013-02-07 18:41:00,
2013-02-07 10:51:00,59.0,33.0,-100.00,SSE,155,5.0,10.0,37,-99.99,,,-99.99,,2013-02-07 18:51:00,
2013-02-07 11:01:00,59.0,32.0,-100.00,SSE,162,6.0,11.0,36,-99.99,,,-99.99,,2013-02-07 19:01:00,
2013-02-07 11:11:00,59.0,29.0,-100.00,SSE,157,6.0,9.0,32,-99.99,,,-99.99,,2013-02-07 19:11:00,
2013-02-07 11:22:00,60.0,26.0,-100.00,South,175,6.0,8.0,27,-99.99,,,-99.99,,2013-02-07 19:22:00,
2013-02-07 11:31:00,61.0,26.0,-100.00,South,176,5.0,11.0,26,-99.99,,,-99.99,,2013-02-07 19:31:00,
2013-02-07 11:41:00,61.0,28.0,-100.00,South,181,7.0,13.0,28,-99.99,,,-99.99,,2013-02-07 19:41:00,
2013-02-07 11:51:00,61.0,35.0,-100.00,West,279,6.0,10.0,37,-99.99,,,-99.99,,2013-02-07 19:51:00,
2013-02-07 12:01:00,60.0,41.0,-100.00,NW,304,4.0,9.0,49,-99.99,,,-99.99,,2013-02-07 20:01:00,
2013-02-07 12:11:00,60.0,39.0,-100.00,WNW,298,5.0,9.0,45,-99.99,,,-99.99,,2013-02-07 20:11:00,
2013-02-07 12:21:00,60.0,39.0,-100.00,WNW,290,5.0,7.0,46,-99.99,,,-99.99,,2013-02-07 20:21:00,
2013-02-07 12:31:00,59.0,42.0,-100.00,NW,306,4.0,10.0,54,-99.99,,,-99.99,,2013-02-07 20:31:00,
2013-02-07 12:41:00,59.0,42.0,-100.00,NW,306,4.0,10.0,54,-99.99,,,-99.99,,2013-02-07 20:41:00,
2013-02-07 12:52:00,57.0,43.0,-100.00,NW,313,6.0,11.0,60,-99.99,,,-99.99,,2013-02-07 20:52:00,
2013-02-07 13:01:00,57.0,43.0,-100.00,NW,313,6.0,11.0,60,-99.99,,,-99.99,,2013-02-07 21:01:00,
2013-02-07 13:11:00,57.0,44.0,-100.00,WNW,303,6.0,11.0,62,-99.99,,,-99.99,,2013-02-07 21:11:00,
2013-02-07 13:21:00,56.0,44.0,-100.00,NW,309,6.0,12.0,63,-99.99,,,-99.99,,2013-02-07 21:21:00,
2013-02-07 13:31:00,56.0,44.0,-100.00,NW,307,7.0,11.0,64,-99.99,,,-99.99,,2013-02-07 21:31:00,
2013-02-07 13:41:00,56.0,44.0,-100.00,NW,308,6.0,10.0,64,-99.99,,,-99.99,,2013-02-07 21:41:00,
2013-02-07 13:51:00,56.0,44.0,-100.00,WNW,300,6.0,10.0,64,-99.99,,,-99.99,,2013-02-07 21:51:00,
2013-02-07 14:01:00,56.0,44.0,-100.00,WNW,289,5.0,9.0,63,-99.99,,,-99.99,,2013-02-07 22:01:00,
2013-02-07 14:11:00,57.0,45.0,-100.00,WNW,303,5.0,10.0,63,-99.99,,,-99.99,,2013-02-07 22:11:00,
2013-02-07 14:21:00,57.0,45.0,-100.00,WNW,303,5.0,10.0,63,-99.99,,,-99.99,,2013-02-07 22:21:00,
2013-02-07 14:31:00,57.0,45.0,-100.00,NW,304,5.0,10.0,64,-99.99,,,-99.99,,2013-02-07 22:31:00,
2013-02-07 14:42:00,57.0,45.0,-100.00,NW,305,5.0,10.0,64,-99.99,,,-99.99,,2013-02-07 22:42:00,
2013-02-07 14:51:00,57.0,45.0,-100.00,WNW,290,5.0,9.0,63,-99.99,,,-99.99,,2013-02-07 22:51:00,
2013-02-07 15:01:00,57.0,45.0,-100.00,WNW,303,5.0,10.0,63,-99.99,,,-99.99,,2013-02-07 23:01:00,
2013-02-07 15:11:00,57.0,44.0,-100.00,WNW,285,5.0,10.0,62,-99.99,,,-99.99,,2013-02-07 23:11:00,
2013-02-07 15:21:00,56.0,44.0,-100.00,WNW,299,4.0,10.0,64,-99.99,,,-99.99,,2013-02-07 23:21:00,
2013-02-07 15:31:00,56.0,45.0,-100.00,NW,306,5.0,10.0,66,-99.99,,,-99.99,,2013-02-07 23:31:00,
2013-02-07 15:41:00,56.0,45.0,-100.00,WNW,287,5.0,9.0,67,-99.99,,,-99.99,,2013-02-07 23:41:00,
2013-02-07 15:52:00,55.0,45.0,-100.00,WNW,300,4.0,9.0,69,-99.99,,,-99.99,,2013-02-07 23:52:00,
2013-02-07 16:01:00,54.0,44.0,-100.00,NW,305,5.0,8.0,69,-99.99,,,-99.99,,2013-02-08 00:01:00,
2013-02-07 16:11:00,55.0,44.0,-100.00,NW,310,4.0,6.0,67,-99.99,,,-99.99,,2013-02-08 00:11:00,
2013-02-07 16:21:00,55.0,44.0,-100.00,NW,311,4.0,6.0,67,-99.99,,,-99.99,,2013-02-08 00:21:00,
2013-02-07 16:31:00,55.0,45.0,-100.00,WNW,299,3.0,6.0,68,-99.99,,,-99.99,,2013-02-08 00:31:00,
2013-02-07 16:41:00,55.0,45.0,-100.00,WNW,283,3.0,6.0,70,-99.99,,,-99.99,,2013-02-08 00:41:00,
2013-02-07 16:52:00,54.0,46.0,-100.00,WNW,299,3.0,7.0,74,-99.99,,,-99.99,,2013-02-08 00:52:00,
2013-02-07 17:01:00,52.0,45.0,-100.00,WNW,298,4.0,8.0,78,-99.99,,,-99.99,,2013-02-08 01:01:00,
2013-02-07 17:11:00,51.0,46.0,-100.00,WNW,292,4.0,8.0,83,-99.99,,,-99.99,,2013-02-08 01:11:00,
2013-02-07 17:21:00,49.0,46.0,-100.00,WNW,295,4.0,11.0,88,-99.99,,,-99.99,,2013-02-08 01:21:00,
2013-02-07 17:41:00,47.0,45.0,-100.00,WNW,295,5.0,8.0,94,-99.99,,,-99.99,,2013-02-08 01:41:00,
2013-02-07 17:51:00,46.0,45.0,-100.00,NW,304,4.0,7.0,96,-99.99,,,-99.99,,2013-02-08 01:51:00,
2013-02-07 18:01:00,46.0,45.0,-100.00,NW,304,4.0,7.0,96,-99.99,,,-99.99,,2013-02-08 02:01:00,
2013-02-07 18:11:00,46.0,45.0,-100.00,WNW,290,3.0,6.0,97,-99.99,,,-99.99,,2013-02-08 02:11:00,
2013-02-07 18:21:00,46.0,45.0,-100.00,WNW,301,3.0,7.0,97,-99.99,,,-99.99,,2013-02-08 02:21:00,
2013-02-07 18:31:00,46.0,45.0,-100.00,WNW,294,4.0,6.0,97,-99.99,,,-99.99,,2013-02-08 02:31:00,
2013-02-07 18:42:00,45.0,44.0,-100.00,WNW,298,3.0,7.0,98,-99.99,,,-99.99,,2013-02-08 02:42:00,
2013-02-07 18:52:00,45.0,44.0,-100.00,NW,306,3.0,8.0,98,-99.99,,,-99.99,,2013-02-08 02:52:00,
2013-02-07 19:01:00,45.0,44.0,-100.00,NW,310,4.0,8.0,98,-99.99,,,-99.99,,2013-02-08 03:01:00,
2013-02-07 19:12:00,45.0,44.0,-100.00,NW,304,4.0,6.0,98,-99.99,,,-99.99,,2013-02-08 03:12:00,
2013-02-07 19:22:00,44.0,43.0,-100.00,WNW,290,3.0,5.0,98,-99.99,,,-99.99,,2013-02-08 03:22:00,
2013-02-07 19:31:00,44.0,43.0,-100.00,WNW,298,2.0,5.0,98,-99.99,,,-99.99,,2013-02-08 03:31:00,
2013-02-07 19:41:00,44.0,44.0,-100.00,WNW,293,3.0,5.0,99,-99.99,,,-99.99,,2013-02-08 03:41:00,
2013-02-07 19:51:00,44.0,44.0,-100.00,WNW,303,2.0,5.0,99,-99.99,,,-99.99,,2013-02-08 03:51:00,
2013-02-07 20:01:00,44.0,44.0,-100.00,WNW,302,2.0,5.0,99,-99.99,,,-99.99,,2013-02-08 04:01:00,
2013-02-07 20:11:00,44.0,44.0,-100.00,WNW,303,3.0,5.0,99,-99.99,,,-99.99,,2013-02-08 04:11:00,
2013-02-07 20:21:00,43.0,43.0,-100.00,WNW,283,2.0,5.0,99,-99.99,,,-99.99,,2013-02-08 04:21:00,
2013-02-07 20:31:00,43.0,43.0,-100.00,West,267,2.0,4.0,99,-99.99,,,-99.99,,2013-02-08 04:31:00,
2013-02-07 20:41:00,43.0,43.0,-100.00,SW,223,1.0,3.0,99,-99.99,,,-99.99,,2013-02-08 04:41:00,
2013-02-07 20:51:00,43.0,43.0,-100.00,SSW,194,1.0,7.0,99,-99.99,,,-99.99,,2013-02-08 04:51:00,
2013-02-07 21:01:00,43.0,43.0,-100.00,SSW,206,4.0,7.0,99,-99.99,,,-99.99,,2013-02-08 05:01:00,
2013-02-07 21:11:00,43.0,43.0,-100.00,SSW,196,5.0,10.0,99,-99.99,,,-99.99,,2013-02-08 05:11:00,
2013-02-07 21:22:00,43.0,43.0,-100.00,WSW,242,5.0,5.0,99,-99.99,,,-99.99,,2013-02-08 05:22:00,
2013-02-07 21:31:00,42.0,42.0,-100.00,SSW,211,2.0,5.0,99,-99.99,,,-99.99,,2013-02-08 05:31:00,
2013-02-07 21:41:00,42.0,42.0,-100.00,SSW,211,2.0,5.0,99,-99.99,,,-99.99,,2013-02-08 05:41:00,
2013-02-07 21:52:00,42.0,42.0,-100.00,SW,215,3.0,5.0,99,-99.99,,,-99.99,,2013-02-08 05:52:00,
2013-02-07 22:01:00,42.0,42.0,-100.00,SW,215,3.0,8.0,99,-99.99,,,-99.99,,2013-02-08 06:01:00,
2013-02-07 22:11:00,42.0,42.0,-100.00,SW,224,3.0,8.0,99,-99.99,,,-99.99,,2013-02-08 06:11:00,
2013-02-07 22:21:00,42.0,42.0,-100.00,SSW,207,4.0,8.0,99,-99.99,,,-99.99,,2013-02-08 06:21:00,
2013-02-07 22:31:00,42.0,42.0,-100.00,South,178,4.0,8.0,99,-99.99,,,-99.99,,2013-02-08 06:31:00,
2013-02-07 22:41:00,41.0,41.0,-100.00,South,186,5.0,9.0,99,-99.99,,,-99.99,,2013-02-08 06:41:00,
2013-02-07 22:51:00,41.0,41.0,-100.00,South,179,7.0,13.0,99,-99.99,,,-99.99,,2013-02-08 06:51:00,
2013-02-07 23:01:00,41.0,41.0,-100.00,South,174,9.0,10.0,99,-99.99,,,-99.99,,2013-02-08 07:01:00,
2013-02-07 23:11:00,41.0,41.0,-100.00,South,170,7.0,12.0,99,-99.99,,,-99.99,,2013-02-08 07:11:00,
2013-02-07 23:21:00,41.0,41.0,-100.00,South,186,8.0,9.0,99,-99.99,,,-99.99,,2013-02-08 07:21:00,
2013-02-07 23:31:00,40.0,40.0,-100.00,SSW,197,7.0,9.0,99,-99.99,,,-99.99,,2013-02-08 07:31:00,
2013-02-07 23:42:00,41.0,40.0,-100.00,SW,216,6.0,10.0,98,-99.99,,,-99.99,,2013-02-08 07:42:00,
2013-02-07 23:51:00,40.0,39.0,-100.00,SW,219,5.0,9.0,98,-99.99,,,-99.99,,2013-02-08 07:51:00,